Time;durP1;ratioP1;P1;durP2;ratioP2;P2;SDS_P1;SDS_P2;PMS_P1;PMS_P2;Temp;Humidity;BMP_temperature;BMP_pressure;BME280_temperature;BME280_humidity;BME280_pressure;Samples;Min_cycle;Max_cycle;Signal;HPM_P1;HPM_P2
2022/01/21 00:01:37;;;;;;;4.28;1.88;;;;;;;;;;4989692;28;20067;-57
2022/01/21 00:04:04;;;;;;;5.15;1.38;;;;;;;;;;4973012;28;20070;-58
2022/01/21 00:06:30;;;;;;;4.65;2.25;;;;;;;;;;4984819;28;20482;-56
2022/01/21 00:08:55;;;;;;;2.63;1.02;;;;;;;;;;4970392;28;20113;-54
2022/01/21 00:11:23;;;;;;;6.03;1.30;;;;;;;;;;4970885;28;20097;-52
2022/01/21 00:13:49;;;;;;;6.55;1.30;;;;;;;;;;4970626;28;20035;-61
2022/01/21 00:16:17;;;;;;;4.75;1.02;;;;;;;;;;4989977;28;20602;-54
2022/01/21 00:18:56;;;;;;;5.43;1.63;;;;;;;;;;4991640;28;20038;-55
2022/01/21 00:32:18;;;;;;;6.53;1.20;;;;;;;;;;5033183;28;20040;-54
2022/01/21 00:34:44;;;;;;;3.33;1.30;;;;;;;;;;5032980;28;20025;-55
2022/01/21 00:37:10;;;;;;;4.63;1.48;;;;;;;;;;5033056;28;20064;-58
2022/01/21 00:39:36;;;;;;;5.18;1.50;;;;;;;;;;5033155;28;20033;-55
2022/01/21 00:42:34;;;;;;;4.43;1.10;;;;;;;;;;5032707;28;20029;-58
2022/01/21 00:44:59;;;;;;;3.63;1.60;;;;;;;;;;5031347;28;20384;-55
2022/01/21 00:47:25;;;;;;;1.73;0.95;;;;;;;;;;5032653;28;20105;-53
2022/01/21 00:49:50;;;;;;;15.93;5.88;;;;;;;;;;5031876;28;20033;-58
2022/01/21 00:52:16;;;;;;;3.42;1.15;;;;;;;;;;5027325;28;20025;-51
2022/01/21 00:54:41;;;;;;;5.00;1.63;;;;;;;;;;5022465;28;20037;-54
2022/01/21 00:57:07;;;;;;;5.20;1.20;;;;;;;;;;5023972;28;20028;-55
2022/01/21 00:59:33;;;;;;;3.75;1.23;;;;;;;;;;5023374;28;20024;-53
2022/01/21 01:01:59;;;;;;;6.65;1.42;;;;;;;;;;5025323;28;20468;-52
2022/01/21 01:04:25;;;;;;;2.83;1.05;;;;;;;;;;5026954;28;20465;-56
2022/01/21 01:06:50;;;;;;;1.63;0.95;;;;;;;;;;5024524;28;20068;-55
2022/01/21 01:09:16;;;;;;;2.60;1.13;;;;;;;;;;5024053;28;20041;-63
2022/01/21 01:12:07;;;;;;;4.00;1.17;;;;;;;;;;5025659;28;20030;-61
2022/01/21 01:20:04;;;;;;;4.10;1.10;;;;;;;;;;5026662;28;20048;-62
2022/01/21 01:22:52;;;;;;;6.28;1.17;;;;;;;;;;5023530;28;20510;-56
2022/01/21 01:28:03;;;;;;;3.85;1.58;;;;;;;;;;5027740;28;20455;-64
2022/01/21 01:30:31;;;;;;;5.00;2.13;;;;;;;;;;5021112;28;20026;-65
2022/01/21 01:33:00;;;;;;;3.97;1.30;;;;;;;;;;5006982;28;20096;-66
2022/01/21 01:35:29;;;;;;;6.45;1.55;;;;;;;;;;5024261;28;20073;-64
2022/01/21 01:40:28;;;;;;;8.57;1.10;;;;;;;;;;5022795;28;20038;-58
2022/01/21 01:49:27;;;;;;;8.18;1.50;;;;;;;;;;5031644;28;20052;-61
2022/01/21 01:51:08;;;;;;;3.80;1.27;;;;;;;;;;5031178;28;20064;-59
2022/01/21 01:53:44;;;;;;;4.53;1.08;;;;;;;;;;5031293;28;20078;-60
2022/01/21 01:56:13;;;;;;;3.97;0.85;;;;;;;;;;5030757;28;20147;-62
2022/01/21 01:58:41;;;;;;;3.75;1.10;;;;;;;;;;5031276;28;20033;-57
2022/01/21 02:01:07;;;;;;;6.22;1.25;;;;;;;;;;5031206;28;20042;-59
2022/01/21 02:03:34;;;;;;;3.72;1.08;;;;;;;;;;5031204;28;20117;-62
2022/01/21 02:06:00;;;;;;;2.25;0.95;;;;;;;;;;5030848;28;20106;-63
2022/01/21 02:08:27;;;;;;;4.80;1.17;;;;;;;;;;5030932;28;20045;-60
2022/01/21 02:10:53;;;;;;;3.08;0.90;;;;;;;;;;5031046;28;20029;-66
2022/01/21 02:13:28;;;;;;;4.38;1.15;;;;;;;;;;5031262;28;20026;-64
2022/01/21 02:16:04;;;;;;;5.80;1.20;;;;;;;;;;5013440;28;20075;-62
2022/01/21 02:21:39;;;;;;;4.03;1.70;;;;;;;;;;5031302;28;20115;-65
2022/01/21 02:24:12;;;;;;;2.40;0.90;;;;;;;;;;5019954;28;20484;-64
2022/01/21 02:26:39;;;;;;;3.10;0.80;;;;;;;;;;5032368;28;20021;-53
2022/01/21 02:29:05;;;;;;;2.65;1.10;;;;;;;;;;5034649;28;20037;-55
2022/01/21 02:31:32;;;;;;;2.72;0.95;;;;;;;;;;5034582;28;20051;-54
2022/01/21 02:33:57;;;;;;;3.58;1.00;;;;;;;;;;5034609;28;20044;-53
2022/01/21 02:36:24;;;;;;;5.40;1.05;;;;;;;;;;5034644;28;20029;-63
2022/01/21 02:38:49;;;;;;;2.40;1.00;;;;;;;;;;5016606;28;20037;-59
2022/01/21 02:41:15;;;;;;;2.90;0.98;;;;;;;;;;5034340;28;20029;-57
2022/01/21 02:43:40;;;;;;;3.90;1.25;;;;;;;;;;5034532;28;20208;-54
2022/01/21 02:46:08;;;;;;;3.97;1.00;;;;;;;;;;5032858;28;20095;-55
2022/01/21 02:48:37;;;;;;;4.53;0.90;;;;;;;;;;5034342;28;20820;-56
2022/01/21 02:51:05;;;;;;;8.82;1.55;;;;;;;;;;5034296;28;20392;-56
2022/01/21 02:56:09;;;;;;;9.73;1.58;;;;;;;;;;5034117;28;20025;-55
2022/01/21 02:58:35;;;;;;;4.63;1.05;;;;;;;;;;5034301;28;20362;-59
2022/01/21 03:01:00;;;;;;;2.92;0.93;;;;;;;;;;5033938;28;20476;-60
2022/01/21 03:03:26;;;;;;;3.60;1.50;;;;;;;;;;5033944;28;20091;-58
2022/01/21 03:05:51;;;;;;;8.07;1.83;;;;;;;;;;5034060;28;20030;-60
2022/01/21 03:08:17;;;;;;;5.05;1.20;;;;;;;;;;5033764;28;20053;-62
2022/01/21 03:10:43;;;;;;;6.65;1.65;;;;;;;;;;5033924;28;20499;-59
2022/01/21 03:13:08;;;;;;;2.53;1.45;;;;;;;;;;5033749;28;20029;-61
2022/01/21 03:15:34;;;;;;;6.65;2.53;;;;;;;;;;5033780;28;20030;-55
2022/01/21 03:17:59;;;;;;;8.38;2.17;;;;;;;;;;5033851;28;20033;-61
2022/01/21 03:20:24;;;;;;;7.63;1.63;;;;;;;;;;5033477;28;20045;-57
2022/01/21 03:22:50;;;;;;;6.32;1.30;;;;;;;;;;5033517;28;20040;-63
2022/01/21 03:25:15;;;;;;;12.00;1.73;;;;;;;;;;5033600;28;20052;-61
2022/01/21 03:27:41;;;;;;;8.93;1.60;;;;;;;;;;5033663;28;20071;-52
2022/01/21 03:30:09;;;;;;;4.93;1.55;;;;;;;;;;5015697;28;20038;-54
2022/01/21 03:32:34;;;;;;;2.88;0.73;;;;;;;;;;5033420;28;20026;-53
2022/01/21 03:35:00;;;;;;;3.40;1.20;;;;;;;;;;5033288;28;20026;-53
2022/01/21 03:37:26;;;;;;;2.53;1.13;;;;;;;;;;5032709;28;20519;-54
2022/01/21 03:39:51;;;;;;;4.45;1.23;;;;;;;;;;5033223;28;20025;-51
2022/01/21 03:42:17;;;;;;;4.07;1.08;;;;;;;;;;5033296;28;20115;-55
2022/01/21 03:44:42;;;;;;;1.60;0.80;;;;;;;;;;5033186;28;20036;-53
2022/01/21 03:47:08;;;;;;;9.57;1.92;;;;;;;;;;5033232;28;20021;-52
2022/01/21 03:49:38;;;;;;;5.63;1.10;;;;;;;;;;5033266;28;20025;-54
2022/01/21 03:52:05;;;;;;;5.15;1.27;;;;;;;;;;5032963;28;20036;-50
2022/01/21 03:54:30;;;;;;;3.22;0.90;;;;;;;;;;5032913;28;20388;-53
2022/01/21 03:56:56;;;;;;;8.52;1.20;;;;;;;;;;5033367;28;20021;-52
2022/01/21 03:59:21;;;;;;;2.55;0.90;;;;;;;;;;5014721;28;20033;-51
2022/01/21 04:01:46;;;;;;;7.20;0.90;;;;;;;;;;5033033;28;20033;-54
2022/01/21 04:04:12;;;;;;;6.97;1.13;;;;;;;;;;5032818;28;20021;-51
2022/01/21 04:06:37;;;;;;;3.05;0.82;;;;;;;;;;5032796;28;20428;-51
2022/01/21 04:09:03;;;;;;;8.23;1.27;;;;;;;;;;5032596;28;20045;-51
2022/01/21 04:11:28;;;;;;;12.18;1.80;;;;;;;;;;5032893;28;20021;-51
2022/01/21 04:13:55;;;;;;;2.47;1.10;;;;;;;;;;5032633;28;20017;-53
2022/01/21 04:16:21;;;;;;;1.80;0.73;;;;;;;;;;5032389;28;20384;-51
2022/01/21 04:18:47;;;;;;;4.65;1.33;;;;;;;;;;5032798;28;20428;-61
2022/01/21 04:21:12;;;;;;;6.03;1.33;;;;;;;;;;5032257;28;20091;-54
2022/01/21 04:23:38;;;;;;;6.35;1.50;;;;;;;;;;5032429;28;20037;-66
2022/01/21 04:26:03;;;;;;;1.80;0.95;;;;;;;;;;5031805;28;20025;-60
2022/01/21 04:28:29;;;;;;;5.35;1.10;;;;;;;;;;5032329;28;20503;-62
2022/01/21 04:30:55;;;;;;;3.95;0.98;;;;;;;;;;5031916;28;20465;-62
2022/01/21 04:33:20;;;;;;;1.88;0.93;;;;;;;;;;5032267;28;20041;-63
2022/01/21 04:35:46;;;;;;;7.30;2.80;;;;;;;;;;5031933;28;20025;-66
2022/01/21 04:38:14;;;;;;;1.77;1.10;;;;;;;;;;5032303;28;20032;-63
2022/01/21 04:40:48;;;;;;;2.05;0.82;;;;;;;;;;5032104;28;20060;-60
2022/01/21 04:48:41;;;;;;;9.13;1.55;;;;;;;;;;5031286;28;20559;-64
2022/01/21 04:51:19;;;;;;;7.78;1.35;;;;;;;;;;5032048;28;20029;-61
2022/01/21 04:53:47;;;;;;;4.38;0.95;;;;;;;;;;5031904;28;20068;-62
2022/01/21 04:56:13;;;;;;;4.68;0.80;;;;;;;;;;5031707;28;20025;-64
2022/01/21 04:58:39;;;;;;;5.18;1.02;;;;;;;;;;5032071;28;20025;-62
2022/01/21 05:01:06;;;;;;;3.53;1.17;;;;;;;;;;5031462;28;20033;-59
2022/01/21 05:03:33;;;;;;;5.35;1.20;;;;;;;;;;5031562;28;20112;-60
2022/01/21 05:06:00;;;;;;;5.25;1.25;;;;;;;;;;5014117;28;20025;-62
2022/01/21 05:08:31;;;;;;;5.07;1.30;;;;;;;;;;5031614;28;20053;-58
2022/01/21 05:10:57;;;;;;;7.72;1.33;;;;;;;;;;5014023;28;20025;-63
2022/01/21 05:13:26;;;;;;;4.00;0.90;;;;;;;;;;5031664;28;20040;-63
2022/01/21 05:16:08;;;;;;;3.83;1.40;;;;;;;;;;5031432;28;20072;-58
2022/01/21 05:18:33;;;;;;;1.42;0.82;;;;;;;;;;5031400;28;20029;-64
2022/01/21 05:20:59;;;;;;;7.13;1.20;;;;;;;;;;5031008;28;20433;-60
2022/01/21 05:23:26;;;;;;;2.03;0.93;;;;;;;;;;5031473;28;20559;-64
2022/01/21 05:25:52;;;;;;;4.22;1.50;;;;;;;;;;5031481;28;20088;-62
2022/01/21 05:28:18;;;;;;;4.45;1.25;;;;;;;;;;5031489;28;20491;-61
2022/01/21 05:30:43;;;;;;;5.05;1.05;;;;;;;;;;5031383;28;20029;-63
2022/01/21 05:33:09;;;;;;;5.78;1.45;;;;;;;;;;5031671;28;20031;-60
2022/01/21 05:35:34;;;;;;;2.92;1.20;;;;;;;;;;5013759;28;20039;-54
2022/01/21 05:38:00;;;;;;;3.65;0.90;;;;;;;;;;5031487;28;20112;-57
2022/01/21 05:40:25;;;;;;;5.68;1.45;;;;;;;;;;5031156;28;20388;-57
2022/01/21 05:42:51;;;;;;;4.32;0.90;;;;;;;;;;5031681;28;20033;-60
2022/01/21 05:48:05;;;;;;;6.53;1.38;;;;;;;;;;4950783;28;20175;-60
2022/01/21 05:50:31;;;;;;;2.42;0.90;;;;;;;;;;4951158;29;20458;-59
2022/01/21 05:52:56;;;;;;;11.15;2.92;;;;;;;;;;4951107;28;20503;-65
2022/01/21 05:55:22;;;;;;;3.92;1.50;;;;;;;;;;4951095;29;20078;-59
2022/01/21 05:57:48;;;;;;;4.07;1.23;;;;;;;;;;4951090;28;20430;-59
2022/01/21 06:00:14;;;;;;;2.75;1.10;;;;;;;;;;4950820;28;20078;-62
2022/01/21 06:02:40;;;;;;;6.43;1.15;;;;;;;;;;4946637;29;20082;-58
2022/01/21 06:05:06;;;;;;;6.32;2.60;;;;;;;;;;4954770;29;20053;-60
2022/01/21 06:07:32;;;;;;;3.50;1.00;;;;;;;;;;4954731;29;20039;-58
2022/01/21 06:09:57;;;;;;;3.15;0.98;;;;;;;;;;4954725;28;20030;-60
2022/01/21 06:12:22;;;;;;;4.63;1.13;;;;;;;;;;4954652;29;20070;-60
2022/01/21 06:14:48;;;;;;;4.90;1.42;;;;;;;;;;4954388;28;20443;-55
2022/01/21 06:17:14;;;;;;;2.60;1.10;;;;;;;;;;4964023;28;20082;-61
2022/01/21 06:19:39;;;;;;;4.82;1.30;;;;;;;;;;4956568;28;20073;-62
2022/01/21 06:22:06;;;;;;;5.53;1.17;;;;;;;;;;4954255;28;20090;-57
2022/01/21 06:24:31;;;;;;;4.47;1.00;;;;;;;;;;4974937;28;20030;-59
2022/01/21 06:27:01;;;;;;;5.72;1.25;;;;;;;;;;5034707;28;20036;-60
2022/01/21 06:29:27;;;;;;;4.70;0.90;;;;;;;;;;5034379;28;20380;-61
2022/01/21 06:31:52;;;;;;;3.47;1.13;;;;;;;;;;5034508;28;20275;-60
2022/01/21 06:34:18;;;;;;;6.18;1.27;;;;;;;;;;5034499;28;20104;-66
2022/01/21 06:36:43;;;;;;;11.27;1.30;;;;;;;;;;5034535;28;20028;-62
2022/01/21 06:39:09;;;;;;;5.82;1.40;;;;;;;;;;5033822;28;20029;-62
2022/01/21 06:41:34;;;;;;;10.57;1.52;;;;;;;;;;5034783;28;20025;-58
2022/01/21 06:44:01;;;;;;;4.07;1.23;;;;;;;;;;5034278;28;20060;-59
2022/01/21 06:46:26;;;;;;;7.80;2.30;;;;;;;;;;5034301;28;20017;-62
2022/01/21 06:48:52;;;;;;;4.53;1.45;;;;;;;;;;5034128;28;20029;-66
2022/01/21 06:51:17;;;;;;;4.47;1.30;;;;;;;;;;5033479;28;20029;-54
2022/01/21 06:53:42;;;;;;;5.25;2.33;;;;;;;;;;5033676;28;20076;-55
2022/01/21 06:56:08;;;;;;;6.93;2.00;;;;;;;;;;5033984;28;20030;-60
2022/01/21 06:58:34;;;;;;;5.72;1.92;;;;;;;;;;5033664;28;20117;-54
2022/01/21 07:00:59;;;;;;;5.68;1.40;;;;;;;;;;5033978;28;20047;-61
2022/01/21 07:03:25;;;;;;;4.90;1.13;;;;;;;;;;5033872;28;20104;-65
2022/01/21 07:05:50;;;;;;;5.18;1.13;;;;;;;;;;5033763;28;20119;-65
2022/01/21 07:08:16;;;;;;;3.15;1.58;;;;;;;;;;5033186;28;20041;-64
2022/01/21 07:10:43;;;;;;;4.18;0.95;;;;;;;;;;5033822;28;20037;-65
2022/01/21 07:13:09;;;;;;;6.30;2.20;;;;;;;;;;5032435;28;20026;-63
2022/01/21 07:15:34;;;;;;;6.85;1.90;;;;;;;;;;5033718;28;20044;-66
2022/01/21 07:18:00;;;;;;;6.68;2.28;;;;;;;;;;5033564;28;20033;-62
2022/01/21 07:20:25;;;;;;;6.57;2.10;;;;;;;;;;5033395;28;20037;-67
2022/01/21 07:22:51;;;;;;;5.78;1.50;;;;;;;;;;5033030;28;20065;-66
2022/01/21 07:25:17;;;;;;;5.38;1.30;;;;;;;;;;5033534;28;20026;-66
2022/01/21 07:27:44;;;;;;;2.13;1.33;;;;;;;;;;5032877;28;20025;-58
2022/01/21 07:30:12;;;;;;;7.13;1.30;;;;;;;;;;5028269;28;20029;-62
2022/01/21 07:32:38;;;;;;;23.63;6.63;;;;;;;;;;5033479;28;20021;-66
2022/01/21 07:35:04;;;;;;;3.47;1.65;;;;;;;;;;5033457;28;20033;-64
2022/01/21 07:37:30;;;;;;;2.90;1.67;;;;;;;;;;5033497;28;20140;-60
2022/01/21 07:39:55;;;;;;;3.88;2.00;;;;;;;;;;5033281;28;20105;-60
2022/01/21 07:42:21;;;;;;;2.85;1.48;;;;;;;;;;5032986;28;20480;-56
2022/01/21 07:44:47;;;;;;;8.52;1.40;;;;;;;;;;5033305;28;20028;-62
2022/01/21 07:47:13;;;;;;;7.22;3.53;;;;;;;;;;5032957;28;20033;-64
2022/01/21 07:49:38;;;;;;;10.48;3.55;;;;;;;;;;5033124;28;20469;-68
2022/01/21 07:52:04;;;;;;;18.13;4.88;;;;;;;;;;5032889;28;20055;-67
2022/01/21 07:54:30;;;;;;;5.43;2.22;;;;;;;;;;5032999;28;20399;-67
2022/01/21 07:56:56;;;;;;;4.32;1.90;;;;;;;;;;5032713;28;20083;-66
2022/01/21 07:59:21;;;;;;;12.07;2.97;;;;;;;;;;5032438;28;20099;-67
2022/01/21 08:01:47;;;;;;;8.25;2.85;;;;;;;;;;5025608;28;20480;-67
2022/01/21 08:04:13;;;;;;;10.07;3.00;;;;;;;;;;5019452;28;20034;-64
2022/01/21 08:06:38;;;;;;;13.68;2.90;;;;;;;;;;5020602;28;20018;-66
2022/01/21 08:09:05;;;;;;;8.77;3.80;;;;;;;;;;5023972;28;20041;-64
2022/01/21 08:11:30;;;;;;;11.93;3.60;;;;;;;;;;5020728;28;20026;-66
2022/01/21 08:13:56;;;;;;;12.30;4.97;;;;;;;;;;5024670;28;20487;-69
2022/01/21 08:16:21;;;;;;;12.02;4.40;;;;;;;;;;5020108;28;20531;-66
2022/01/21 08:18:48;;;;;;;14.25;3.35;;;;;;;;;;5006787;28;20420;-69
2022/01/21 08:21:18;;;;;;;6.32;2.38;;;;;;;;;;5018153;28;20030;-66
2022/01/21 08:23:45;;;;;;;5.55;2.42;;;;;;;;;;5021947;28;20024;-65
2022/01/21 08:26:11;;;;;;;10.13;3.72;;;;;;;;;;5025762;28;20092;-68
2022/01/21 08:28:36;;;;;;;5.40;1.63;;;;;;;;;;5019379;28;20026;-65
2022/01/21 08:31:02;;;;;;;4.25;1.50;;;;;;;;;;5016732;28;20037;-67
2022/01/21 08:33:28;;;;;;;9.23;2.28;;;;;;;;;;5013302;28;20056;-65
2022/01/21 08:35:54;;;;;;;4.25;1.45;;;;;;;;;;5024953;28;20419;-65
2022/01/21 08:38:21;;;;;;;6.95;2.30;;;;;;;;;;5021862;28;20026;-62
2022/01/21 08:40:47;;;;;;;6.28;2.58;;;;;;;;;;5017440;28;20026;-67
2022/01/21 08:43:13;;;;;;;6.30;2.45;;;;;;;;;;5015422;28;20026;-67
2022/01/21 08:45:38;;;;;;;8.32;2.70;;;;;;;;;;5018792;28;20542;-67
2022/01/21 08:48:05;;;;;;;15.45;5.25;;;;;;;;;;5027383;28;20025;-66
2022/01/21 08:50:30;;;;;;;8.18;2.90;;;;;;;;;;5024781;28;20041;-64
2022/01/21 08:53:07;;;;;;;6.43;2.95;;;;;;;;;;5031172;28;20385;-66
2022/01/21 08:55:34;;;;;;;4.95;2.58;;;;;;;;;;5025981;28;20029;-66
2022/01/21 08:57:59;;;;;;;13.35;4.18;;;;;;;;;;5019305;28;20104;-66
2022/01/21 09:00:25;;;;;;;11.93;4.53;;;;;;;;;;5020564;28;20549;-66
2022/01/21 09:02:51;;;;;;;9.50;3.15;;;;;;;;;;5020615;28;20033;-66
2022/01/21 09:05:17;;;;;;;12.88;4.60;;;;;;;;;;5019321;28;20077;-67
2022/01/21 09:07:42;;;;;;;8.90;3.40;;;;;;;;;;5030927;28;20042;-67
2022/01/21 09:10:10;;;;;;;12.80;5.18;;;;;;;;;;5024684;28;20068;-67
2022/01/21 09:12:36;;;;;;;14.68;4.35;;;;;;;;;;5022281;28;20063;-59
2022/01/21 09:15:03;;;;;;;7.35;2.95;;;;;;;;;;5015303;28;20026;-56
2022/01/21 09:17:28;;;;;;;10.82;3.28;;;;;;;;;;5022776;28;20021;-57
2022/01/21 09:19:53;;;;;;;5.60;2.90;;;;;;;;;;5030320;28;20029;-54
2022/01/21 09:22:19;;;;;;;8.27;2.20;;;;;;;;;;5019222;28;20033;-55
2022/01/21 09:24:44;;;;;;;7.60;2.53;;;;;;;;;;5015345;28;20018;-57
2022/01/21 09:27:10;;;;;;;5.40;1.80;;;;;;;;;;5018907;28;20419;-54
2022/01/21 09:29:36;;;;;;;6.38;2.30;;;;;;;;;;5021975;28;20492;-56
2022/01/21 09:32:03;;;;;;;6.25;1.92;;;;;;;;;;5028871;28;20037;-57
2022/01/21 09:34:29;;;;;;;5.75;1.58;;;;;;;;;;5005138;28;20100;-55
2022/01/21 09:36:56;;;;;;;6.72;1.60;;;;;;;;;;5025827;28;20152;-58
2022/01/21 09:39:22;;;;;;;4.88;1.55;;;;;;;;;;5025933;28;20391;-57
2022/01/21 09:41:50;;;;;;;7.88;1.75;;;;;;;;;;5035208;28;20308;-55
2022/01/21 09:44:18;;;;;;;8.27;1.80;;;;;;;;;;5023895;28;20038;-55
2022/01/21 09:46:46;;;;;;;7.35;1.65;;;;;;;;;;5021628;28;20013;-59
2022/01/21 09:51:52;;;;;;;6.90;2.00;;;;;;;;;;5023909;28;20017;-56
2022/01/21 09:54:17;;;;;;;9.05;1.60;;;;;;;;;;5022974;28;20510;-57
2022/01/21 09:56:46;;;;;;;7.78;2.30;;;;;;;;;;5029673;28;20029;-61
2022/01/21 09:59:17;;;;;;;11.43;3.20;;;;;;;;;;5017945;28;20113;-58
2022/01/21 10:01:42;;;;;;;11.40;2.58;;;;;;;;;;5019756;28;20071;-54
2022/01/21 10:04:08;;;;;;;8.13;2.20;;;;;;;;;;5018652;28;20461;-58
2022/01/21 10:06:35;;;;;;;12.02;2.72;;;;;;;;;;5021742;28;20025;-58
2022/01/21 10:09:02;;;;;;;8.07;2.15;;;;;;;;;;5028462;28;20054;-56
2022/01/21 10:11:27;;;;;;;6.07;2.20;;;;;;;;;;5023511;28;20425;-62
2022/01/21 10:13:53;;;;;;;20.48;5.78;;;;;;;;;;5019879;28;20057;-64
2022/01/21 10:16:19;;;;;;;13.23;5.05;;;;;;;;;;5018338;28;20494;-55
2022/01/21 10:19:13;;;;;;;9.45;4.03;;;;;;;;;;5022035;28;20101;-59
2022/01/21 10:21:43;;;;;;;6.03;2.15;;;;;;;;;;5026222;28;20030;-61
2022/01/21 10:24:14;;;;;;;10.93;3.30;;;;;;;;;;5025557;28;20045;-54
2022/01/21 10:26:48;;;;;;;8.45;4.55;;;;;;;;;;5021581;28;20030;-54
2022/01/21 10:29:14;;;;;;;14.65;7.10;;;;;;;;;;5024147;28;20109;-54
2022/01/21 10:31:54;;;;;;;14.40;5.82;;;;;;;;;;5027635;28;20719;-56
2022/01/21 10:34:28;;;;;;;15.57;4.22;;;;;;;;;;5019102;28;20030;-67
2022/01/21 10:36:58;;;;;;;9.43;4.30;;;;;;;;;;5023064;28;20036;-58
2022/01/21 10:39:31;;;;;;;10.18;4.38;;;;;;;;;;5023016;28;20062;-65
2022/01/21 10:41:58;;;;;;;6.10;3.22;;;;;;;;;;5016948;28;20076;-68
2022/01/21 10:44:33;;;;;;;8.90;2.35;;;;;;;;;;5020808;28;20026;-65
2022/01/21 10:47:11;;;;;;;7.40;2.50;;;;;;;;;;5018667;28;20376;-64
2022/01/21 10:49:43;;;;;;;4.07;1.85;;;;;;;;;;5022784;28;20022;-66
2022/01/21 10:52:10;;;;;;;5.30;2.10;;;;;;;;;;5022462;28;20030;-63
2022/01/21 10:54:44;;;;;;;7.22;2.17;;;;;;;;;;5021494;28;20032;-63
2022/01/21 10:57:12;;;;;;;10.00;2.63;;;;;;;;;;5021329;28;20503;-61
2022/01/21 10:59:44;;;;;;;8.48;2.03;;;;;;;;;;5019100;28;20026;-58
2022/01/21 11:02:11;;;;;;;6.45;2.60;;;;;;;;;;5028715;28;20433;-58
2022/01/21 11:04:44;;;;;;;5.03;2.08;;;;;;;;;;5023157;28;20053;-61
2022/01/21 11:07:13;;;;;;;8.45;2.25;;;;;;;;;;5032973;28;20029;-59
2022/01/21 11:09:38;;;;;;;7.43;1.77;;;;;;;;;;5032303;28;20488;-54
2022/01/21 11:12:11;;;;;;;10.25;3.05;;;;;;;;;;5018645;28;20038;-54
2022/01/21 11:15:06;;;;;;;6.82;2.45;;;;;;;;;;5032866;28;20034;-59
2022/01/21 11:17:31;;;;;;;12.18;4.97;;;;;;;;;;5010744;28;20084;-56
2022/01/21 11:20:06;;;;;;;22.13;10.15;;;;;;;;;;5019176;28;20026;-57
2022/01/21 11:22:50;;;;;;;19.83;5.90;;;;;;;;;;5025767;28;20033;-57
2022/01/21 11:25:16;;;;;;;13.32;4.13;;;;;;;;;;5021793;28;20041;-61
2022/01/21 11:27:54;;;;;;;15.27;4.13;;;;;;;;;;5022191;28;20069;-60
2022/01/21 11:30:20;;;;;;;12.48;4.43;;;;;;;;;;5022176;28;20037;-58
2022/01/21 11:32:45;;;;;;;17.30;3.30;;;;;;;;;;5022142;28;20034;-57
2022/01/21 11:35:11;;;;;;;7.63;2.35;;;;;;;;;;5020443;28;20033;-58
2022/01/21 11:37:36;;;;;;;11.60;2.60;;;;;;;;;;5020274;28;20069;-57
2022/01/21 11:40:03;;;;;;;11.65;3.10;;;;;;;;;;5018483;28;20033;-56
2022/01/21 11:42:29;;;;;;;11.48;2.67;;;;;;;;;;5015887;28;20172;-59
2022/01/21 11:45:04;;;;;;;8.68;2.00;;;;;;;;;;5021303;28;20083;-52
2022/01/21 11:47:50;;;;;;;10.38;3.47;;;;;;;;;;5025004;28;20026;-56
2022/01/21 11:50:18;;;;;;;19.20;7.43;;;;;;;;;;5021049;28;20029;-55
2022/01/21 11:52:45;;;;;;;185.07;51.50;;;;;;;;;;5000398;28;20037;-56
2022/01/21 11:55:32;;;;;;;31.13;9.93;;;;;;;;;;5023285;28;20496;-55
2022/01/21 11:58:11;;;;;;;39.78;13.10;;;;;;;;;;5022975;28;20014;-54
2022/01/21 12:00:36;;;;;;;14.55;4.50;;;;;;;;;;5022312;28;20029;-58
2022/01/21 12:03:02;;;;;;;10.50;4.82;;;;;;;;;;5030405;28;20476;-68
2022/01/21 12:05:27;;;;;;;8.50;3.65;;;;;;;;;;5019235;28;20516;-60
2022/01/21 12:07:53;;;;;;;15.20;7.00;;;;;;;;;;5021498;28;20052;-61
2022/01/21 12:10:21;;;;;;;17.05;6.47;;;;;;;;;;5019506;28;20021;-59
2022/01/21 12:12:59;;;;;;;18.55;5.30;;;;;;;;;;5025720;28;20022;-58
2022/01/21 12:15:31;;;;;;;7.95;3.25;;;;;;;;;;5019199;28;20033;-67
2022/01/21 12:20:43;;;;;;;8.45;3.05;;;;;;;;;;5021063;28;20485;-65
2022/01/21 12:23:29;;;;;;;8.45;3.10;;;;;;;;;;5019964;28;20052;-65
2022/01/21 12:26:15;;;;;;;7.25;3.17;;;;;;;;;;5021717;28;20060;-57
2022/01/21 12:28:54;;;;;;;8.05;3.42;;;;;;;;;;5020764;28;20022;-62
2022/01/21 12:31:22;;;;;;;10.43;3.80;;;;;;;;;;5024062;28;20507;-55
2022/01/21 12:36:29;;;;;;;8.93;3.53;;;;;;;;;;5019182;28;20029;-60
2022/01/21 12:41:23;;;;;;;15.65;6.60;;;;;;;;;;5019848;28;20473;-58
2022/01/21 12:43:53;;;;;;;21.25;8.48;;;;;;;;;;5025621;28;20067;-62
2022/01/21 12:46:29;;;;;;;14.40;6.45;;;;;;;;;;5019711;28;20481;-65
2022/01/21 12:48:57;;;;;;;20.42;6.28;;;;;;;;;;5022761;28;20464;-57
2022/01/21 12:56:47;;;;;;;24.88;9.85;;;;;;;;;;5021364;28;20070;-56
2022/01/21 12:59:22;;;;;;;7.68;2.63;;;;;;;;;;5016972;28;20045;-60
2022/01/21 13:01:49;;;;;;;28.40;14.60;;;;;;;;;;5021165;28;20025;-66
2022/01/21 13:04:20;;;;;;;14.38;5.82;;;;;;;;;;5030589;28;20026;-66
2022/01/21 13:06:57;;;;;;;6.18;1.63;;;;;;;;;;5020555;28;20021;-68
2022/01/21 13:09:54;;;;;;;4.97;1.98;;;;;;;;;;5028568;28;20091;-63
2022/01/21 13:12:23;;;;;;;8.55;2.03;;;;;;;;;;4954933;28;20154;-66
2022/01/21 13:14:55;;;;;;;11.07;2.20;;;;;;;;;;4964394;28;20023;-64
2022/01/21 13:17:21;;;;;;;9.52;3.05;;;;;;;;;;4965050;28;20058;-58
2022/01/21 13:19:52;;;;;;;7.43;1.92;;;;;;;;;;4962231;28;20035;-59
2022/01/21 13:22:36;;;;;;;6.30;1.95;;;;;;;;;;4950684;28;20035;-61
2022/01/21 13:25:13;;;;;;;9.82;1.98;;;;;;;;;;4950271;28;20027;-56
2022/01/21 13:27:47;;;;;;;5.35;1.50;;;;;;;;;;4957130;28;20482;-63
2022/01/21 13:30:15;;;;;;;6.57;1.55;;;;;;;;;;4958839;28;20062;-59
2022/01/21 13:32:41;;;;;;;6.95;1.67;;;;;;;;;;4969580;28;20049;-56
2022/01/21 13:35:10;;;;;;;10.75;4.75;;;;;;;;;;4958660;28;20031;-56
2022/01/21 13:37:37;;;;;;;10.30;4.38;;;;;;;;;;4950573;28;20110;-57
2022/01/21 13:40:05;;;;;;;20.60;12.45;;;;;;;;;;4965962;28;20487;-56
2022/01/21 13:42:31;;;;;;;6.00;2.80;;;;;;;;;;4963704;28;20055;-57
2022/01/21 13:45:01;;;;;;;17.58;6.97;;;;;;;;;;4959925;28;20046;-55
2022/01/21 13:47:42;;;;;;;10.88;4.82;;;;;;;;;;4964048;28;20033;-56
2022/01/21 13:50:08;;;;;;;21.23;9.07;;;;;;;;;;5011783;28;20116;-54
2022/01/21 13:52:53;;;;;;;4.85;1.40;;;;;;;;;;5021893;28;20061;-58
2022/01/21 13:55:25;;;;;;;3.58;1.30;;;;;;;;;;5025189;28;20029;-56
2022/01/21 13:57:51;;;;;;;9.65;1.90;;;;;;;;;;5016770;28;20435;-55
2022/01/21 14:00:35;;;;;;;8.13;3.08;;;;;;;;;;5016526;28;20034;-53
2022/01/21 14:03:08;;;;;;;4.85;2.08;;;;;;;;;;5017400;28;20033;-58
2022/01/21 14:05:50;;;;;;;6.40;3.13;;;;;;;;;;5026419;28;20025;-54
2022/01/21 14:08:21;;;;;;;6.30;2.70;;;;;;;;;;5019076;28;20046;-53
2022/01/21 14:10:46;;;;;;;14.75;8.13;;;;;;;;;;5030410;28;20044;-55
2022/01/21 14:13:12;;;;;;;4.28;1.75;;;;;;;;;;5013658;28;20013;-59
2022/01/21 14:15:38;;;;;;;6.50;1.75;;;;;;;;;;5031818;28;20088;-56
2022/01/21 14:18:03;;;;;;;3.97;1.35;;;;;;;;;;5031586;28;20021;-56
2022/01/21 14:20:31;;;;;;;6.72;1.75;;;;;;;;;;5031597;28;20366;-58
2022/01/21 14:22:57;;;;;;;4.90;1.50;;;;;;;;;;5033570;28;20032;-60
2022/01/21 14:25:23;;;;;;;5.13;1.88;;;;;;;;;;5031065;28;20025;-54
2022/01/21 14:27:50;;;;;;;7.60;2.42;;;;;;;;;;5027172;28;20101;-58
2022/01/21 14:30:18;;;;;;;4.60;2.00;;;;;;;;;;5027126;28;20362;-59
2022/01/21 14:32:52;;;;;;;5.90;1.58;;;;;;;;;;5028297;28;20079;-55
2022/01/21 14:35:25;;;;;;;7.72;2.72;;;;;;;;;;5026437;28;20087;-55
2022/01/21 14:37:53;;;;;;;22.40;7.20;;;;;;;;;;5026348;28;20396;-60
2022/01/21 14:40:28;;;;;;;8.77;4.38;;;;;;;;;;5026543;28;20025;-56
2022/01/21 14:43:07;;;;;;;11.18;4.03;;;;;;;;;;5027716;28;20044;-57
2022/01/21 14:45:33;;;;;;;19.95;6.53;;;;;;;;;;5023856;28;20121;-56
2022/01/21 14:48:22;;;;;;;19.65;7.38;;;;;;;;;;5024350;28;20029;-57
2022/01/21 14:50:50;;;;;;;7.13;3.80;;;;;;;;;;5025655;28;20488;-59
2022/01/21 14:53:15;;;;;;;9.45;4.47;;;;;;;;;;5031957;28;20071;-54
2022/01/21 14:55:45;;;;;;;9.73;4.97;;;;;;;;;;5035102;28;20022;-55
2022/01/21 14:58:23;;;;;;;6.40;2.90;;;;;;;;;;5031730;28;20044;-55
2022/01/21 15:01:01;;;;;;;7.88;3.40;;;;;;;;;;5034319;28;20773;-59
2022/01/21 15:03:29;;;;;;;13.38;5.85;;;;;;;;;;5035028;28;20052;-59
2022/01/21 15:06:25;;;;;;;32.72;11.77;;;;;;;;;;5034625;28;20022;-56
2022/01/21 15:08:59;;;;;;;31.15;11.13;;;;;;;;;;5033882;28;20472;-55
2022/01/21 15:14:33;;;;;;;171.15;53.00;;;;;;;;;;5034479;28;20030;-58
2022/01/21 15:17:11;;;;;;;44.05;20.88;;;;;;;;;;5027955;28;20037;-58
2022/01/21 15:19:37;;;;;;;36.60;21.90;;;;;;;;;;5025192;28;20061;-59
2022/01/21 15:22:09;;;;;;;31.60;14.95;;;;;;;;;;5023457;28;21232;-60
2022/01/21 15:24:35;;;;;;;12.98;7.03;;;;;;;;;;5028608;28;20030;-56
2022/01/21 15:27:01;;;;;;;21.80;9.23;;;;;;;;;;5026847;28;20025;-56
2022/01/21 15:29:26;;;;;;;20.92;10.98;;;;;;;;;;5025218;28;20392;-57
2022/01/21 15:31:52;;;;;;;12.38;5.82;;;;;;;;;;5025683;28;20469;-59
2022/01/21 15:34:17;;;;;;;9.82;4.90;;;;;;;;;;5024233;28;20030;-58
2022/01/21 15:36:44;;;;;;;8.35;4.97;;;;;;;;;;5024562;28;20052;-56
2022/01/21 15:39:11;;;;;;;10.80;4.13;;;;;;;;;;5024620;28;20038;-54
2022/01/21 15:41:36;;;;;;;13.40;6.25;;;;;;;;;;5024606;28;20094;-60
2022/01/21 15:44:02;;;;;;;24.42;10.68;;;;;;;;;;5024647;28;20025;-59
2022/01/21 15:46:27;;;;;;;43.60;10.93;;;;;;;;;;5025861;28;20025;-58